Terminal Aerodrome Forecast
Issued by NWS Grand Junction, CO

Home | Current Version | Previous Version | Text Only | Print | Product List | Glossary On
Versions: 1 2 3 4 5 6 7 8 9 10 11 12 13 14 15 16 17 18 19
000
FTUS45 KGJT 242343
TAFGJT
TAF
KGJT 242343Z 2500/2524 32006KT P6SM VCSH SCT050 OVC070
      TEMPO 2500/2502 34010G18KT -SHRA BKN050 OVC070
     FM250200 05004KT P6SM VCSH SCT050 BKN080
     FM250500 06006KT P6SM FEW080 SCT250
     FM251200 11006KT P6SM SKC
     FM252000 28005KT P6SM SKC=

USA.gov is the U.S. government's official web portal to all federal, state and local government web resources and services.